KPBF/PBF METAR and TAF weather

Enter ICAO airport designator
Station Type Date Time Source
KPBF METAR 2022/06/28 22:53 UTC NOAA

KPBF 282253Z AUTO 01009KT 10SM CLR 30/15 A3012 RMK AO2 SLP195 T03000150 $


Station Type Date Time Source
KPBF Decoded METAR 2022/06/28 22:53 UTC NOAA

PINE BLUFF GRIDER FIELD, AR, United States (KPBF) 34-11N 091-56W 62M
Jun 28, 2022 - 06:53 PM EDT / 2022.06.28 2253 UTC
Wind: from the N (010 degrees) at 10 MPH (9 KT):0
Visibility: 10 mile(s):0
Sky conditions: clear
Temperature: 86.0 F (30.0 C)
Dew Point: 59.0 F (15.0 C)
Relative Humidity: 40%
Pressure (altimeter): 30.12 in. Hg (1019 hPa)
ob: KPBF 282253Z AUTO 01009KT 10SM CLR 30/15 A3012 RMK AO2 SLP195 T03000150
cycle: 23

Station Type Date Time Source
KPBF TAF 2022/06/28 18:22 UTC NOAA

TAF KPBF 281720Z 2818/2918 03008KT P6SM SCT250
FM290200 VRB03KT P6SM FEW250
FM291500 04007KT P6SM SKC

Example: see airport list